createdAt,value
2017-01-15T00:00:53.017Z,0
2017-01-15T00:01:52.621Z,0
2017-01-15T00:02:52.614Z,0
2017-01-15T00:03:52.594Z,0
2017-01-15T00:04:52.574Z,0
2017-01-15T00:05:52.562Z,0
2017-01-15T00:06:52.551Z,0
2017-01-15T00:07:52.925Z,0
2017-01-15T00:08:52.522Z,0
2017-01-15T00:09:52.524Z,0
2017-01-15T00:10:52.515Z,0
2017-01-15T00:11:52.485Z,0
2017-01-15T00:12:52.464Z,0
2017-01-15T00:13:52.454Z,0
2017-01-15T00:14:52.450Z,0
2017-01-15T00:15:52.427Z,0
2017-01-15T00:16:52.416Z,0
2017-01-15T00:17:52.400Z,0
2017-01-15T00:18:52.389Z,0
2017-01-15T00:19:52.382Z,0
2017-01-15T00:20:52.365Z,0
2017-01-15T00:21:52.344Z,0
2017-01-15T00:22:52.717Z,0
2017-01-15T00:23:52.316Z,0
2017-01-15T00:24:52.305Z,0
2017-01-15T00:25:52.297Z,0
2017-01-15T00:26:52.277Z,0
2017-01-15T00:27:52.263Z,0
2017-01-15T00:28:52.265Z,0
2017-01-15T00:29:52.235Z,0
2017-01-15T00:30:52.228Z,0
2017-01-15T00:31:52.208Z,0
2017-01-15T00:32:52.590Z,0
2017-01-15T00:33:52.182Z,0
2017-01-15T00:34:52.172Z,0
2017-01-15T00:35:52.155Z,0
2017-01-15T00:36:52.147Z,0
2017-01-15T00:37:52.132Z,0
2017-01-15T00:38:52.116Z,0
2017-01-15T00:39:52.098Z,0
2017-01-15T00:40:52.092Z,0
2017-01-15T00:41:52.074Z,0
2017-01-15T00:42:52.058Z,0
2017-01-15T00:43:52.050Z,0
2017-01-15T00:44:52.030Z,0
2017-01-15T00:45:52.019Z,0
2017-01-15T00:46:52.000Z,0
2017-01-15T00:47:51.990Z,0
2017-01-15T00:48:51.977Z,0
2017-01-15T00:49:51.986Z,0
2017-01-15T00:50:51.949Z,0
2017-01-15T00:51:51.930Z,0
2017-01-15T00:52:51.923Z,0
2017-01-15T00:53:52.312Z,0
2017-01-15T00:54:51.920Z,0
2017-01-15T00:55:51.910Z,0
2017-01-15T00:56:51.863Z,0
2017-01-15T00:57:51.856Z,0
2017-01-15T00:58:51.830Z,0
2017-01-15T00:59:51.836Z,0
2017-01-15T01:00:51.807Z,0
2017-01-15T01:01:51.826Z,0
2017-01-15T01:02:51.786Z,0
2017-01-15T01:03:51.794Z,0
2017-01-15T01:04:51.754Z,0
2017-01-15T01:05:51.740Z,0
2017-01-15T01:06:51.726Z,0
2017-01-15T01:07:51.716Z,0
2017-01-15T01:08:51.700Z,0
2017-01-15T01:09:51.714Z,0
2017-01-15T01:10:51.682Z,0
2017-01-15T01:11:51.659Z,0
2017-01-15T01:12:51.643Z,0
2017-01-15T01:13:51.631Z,0
2017-01-15T01:14:51.616Z,0
2017-01-15T01:15:51.601Z,0
2017-01-15T01:16:51.592Z,0
2017-01-15T01:17:52.346Z,0
2017-01-15T01:18:51.563Z,0
2017-01-15T01:19:51.552Z,0
2017-01-15T01:20:51.535Z,0
2017-01-15T01:21:51.519Z,0
2017-01-15T01:22:51.507Z,0
2017-01-15T01:23:51.491Z,0
2017-01-15T01:24:51.481Z,0
2017-01-15T01:25:51.462Z,0
2017-01-15T01:26:51.848Z,0
2017-01-15T01:27:51.440Z,0
2017-01-15T01:28:51.814Z,0
2017-01-15T01:29:51.417Z,0
2017-01-15T01:30:51.397Z,0
2017-01-15T01:31:51.381Z,0
2017-01-15T01:32:51.677Z,0
2017-01-15T01:33:51.359Z,0
2017-01-15T01:34:51.341Z,0
2017-01-15T01:35:51.718Z,0
2017-01-15T01:36:51.314Z,0
2017-01-15T01:37:51.307Z,0
2017-01-15T01:38:51.287Z,0
2017-01-15T01:39:51.275Z,0
2017-01-15T01:40:51.646Z,0
2017-01-15T01:41:51.248Z,0
2017-01-15T01:42:51.237Z,0
2017-01-15T01:43:51.219Z,0
2017-01-15T01:44:51.214Z,0
2017-01-15T01:45:51.193Z,0
2017-01-15T01:46:51.178Z,0
2017-01-15T01:47:51.166Z,0
2017-01-15T01:48:51.152Z,0
2017-01-15T01:49:51.524Z,0
2017-01-15T01:50:51.129Z,0
2017-01-15T01:51:51.120Z,0
2017-01-15T01:52:51.096Z,0
2017-01-15T01:53:51.085Z,0
2017-01-15T01:54:51.068Z,0
2017-01-15T01:55:51.058Z,0
2017-01-15T01:56:51.047Z,0
2017-01-15T01:57:51.030Z,0
2017-01-15T01:58:51.022Z,0
2017-01-15T01:59:51.001Z,0
2017-01-15T02:00:50.991Z,0
2017-01-15T02:01:50.978Z,0
2017-01-15T02:02:50.961Z,0
2017-01-15T02:03:50.952Z,0
2017-01-15T02:04:50.943Z,0
2017-01-15T02:05:50.941Z,0
2017-01-15T02:06:50.907Z,0
2017-01-15T02:07:50.892Z,0
2017-01-15T02:08:50.881Z,0
2017-01-15T02:09:50.869Z,0
2017-01-15T02:10:50.851Z,0
2017-01-15T02:11:50.847Z,0
2017-01-15T02:12:50.829Z,0
2017-01-15T02:13:50.811Z,0
2017-01-15T02:14:50.802Z,0
2017-01-15T02:15:50.787Z,0
2017-01-15T02:16:50.775Z,0
2017-01-15T02:17:50.761Z,0
2017-01-15T02:18:50.743Z,0
2017-01-15T02:19:50.730Z,0
2017-01-15T02:20:50.721Z,0
2017-01-15T02:21:50.732Z,0
2017-01-15T02:22:50.691Z,0
2017-01-15T02:23:50.681Z,0
2017-01-15T02:24:50.668Z,0
2017-01-15T02:25:50.654Z,0
2017-01-15T02:26:50.637Z,0
2017-01-15T02:27:50.626Z,0
2017-01-15T02:28:50.611Z,0
2017-01-15T02:29:50.600Z,0
2017-01-15T02:30:50.586Z,0
2017-01-15T02:31:50.968Z,0
2017-01-15T02:32:50.562Z,0
2017-01-15T02:33:50.544Z,0
2017-01-15T02:34:50.534Z,0
2017-01-15T02:35:50.519Z,0
2017-01-15T02:36:50.505Z,0
2017-01-15T02:37:50.499Z,0
2017-01-15T02:38:50.476Z,0
2017-01-15T02:39:50.512Z,0
2017-01-15T02:40:50.452Z,0
2017-01-15T02:41:50.439Z,0
2017-01-15T02:42:50.421Z,0
2017-01-15T02:43:50.414Z,0
2017-01-15T02:44:50.398Z,0
2017-01-15T02:45:50.385Z,0
2017-01-15T02:46:50.375Z,0
2017-01-15T02:47:50.357Z,0
2017-01-15T02:48:50.343Z,0
2017-01-15T02:49:50.331Z,0
2017-01-15T02:50:50.323Z,0
2017-01-15T02:51:50.379Z,0
2017-01-15T02:52:51.178Z,0
2017-01-15T02:53:50.279Z,0
2017-01-15T02:54:50.267Z,0
2017-01-15T02:55:50.250Z,0
2017-01-15T02:56:50.243Z,0
2017-01-15T02:57:50.226Z,0
2017-01-15T02:58:50.211Z,0
2017-01-15T02:59:50.197Z,0
2017-01-15T03:00:50.182Z,0
2017-01-15T03:01:50.168Z,0
2017-01-15T03:02:50.154Z,0
2017-01-15T03:03:50.535Z,0
2017-01-15T03:04:50.131Z,0
2017-01-15T03:05:50.117Z,0
2017-01-15T03:06:50.101Z,0
2017-01-15T03:07:50.093Z,0
2017-01-15T03:08:50.074Z,0
2017-01-15T03:09:50.060Z,0
2017-01-15T03:10:50.052Z,0
2017-01-15T03:11:50.037Z,0
2017-01-15T03:12:50.022Z,0
2017-01-15T03:13:50.012Z,0
2017-01-15T03:14:50.009Z,0
2017-01-15T03:15:49.986Z,0
2017-01-15T03:16:49.967Z,0
2017-01-15T03:17:49.953Z,0
2017-01-15T03:18:49.939Z,0
2017-01-15T03:19:49.930Z,0
2017-01-15T03:20:49.911Z,0
2017-01-15T03:21:49.907Z,0
2017-01-15T03:22:49.885Z,0
2017-01-15T03:23:49.879Z,0
2017-01-15T03:24:49.882Z,0
2017-01-15T03:25:49.849Z,0
2017-01-15T03:26:49.833Z,0
2017-01-15T03:27:49.852Z,0
2017-01-15T03:28:49.813Z,0
2017-01-15T03:29:49.794Z,0
2017-01-15T03:30:49.783Z,0
2017-01-15T03:31:49.776Z,0
2017-01-15T03:32:49.759Z,0
2017-01-15T03:33:49.746Z,0
2017-01-15T03:34:49.726Z,0
2017-01-15T03:35:49.719Z,0
2017-01-15T03:36:49.700Z,0
2017-01-15T03:37:49.686Z,0
2017-01-15T03:38:49.699Z,0
2017-01-15T03:39:49.658Z,0
2017-01-15T03:40:49.645Z,0
2017-01-15T03:41:49.630Z,0
2017-01-15T03:42:49.639Z,0
2017-01-15T03:43:49.602Z,0
2017-01-15T03:44:49.592Z,0
2017-01-15T03:45:49.575Z,0
2017-01-15T03:46:49.569Z,0
2017-01-15T03:47:49.548Z,0
2017-01-15T03:48:49.539Z,0
2017-01-15T03:49:49.525Z,0
2017-01-15T03:50:49.508Z,0
2017-01-15T03:51:49.493Z,0
2017-01-15T03:52:49.492Z,0
2017-01-15T03:53:49.466Z,0
2017-01-15T03:54:49.462Z,0
2017-01-15T03:55:49.439Z,0
2017-01-15T03:56:49.429Z,0
2017-01-15T03:57:49.411Z,0
2017-01-15T03:58:49.400Z,0
2017-01-15T03:59:49.391Z,0
2017-01-15T04:00:49.379Z,0
2017-01-15T04:01:49.360Z,0
2017-01-15T04:02:49.347Z,0
2017-01-15T04:03:49.340Z,0
2017-01-15T04:04:49.315Z,0
2017-01-15T04:05:49.305Z,0
2017-01-15T04:06:49.291Z,0
2017-01-15T04:07:49.279Z,0
2017-01-15T04:08:49.260Z,0
2017-01-15T04:09:49.253Z,0
2017-01-15T04:10:49.236Z,0
2017-01-15T04:11:49.228Z,0
2017-01-15T04:12:49.210Z,0
2017-01-15T04:13:49.197Z,0
2017-01-15T04:14:49.183Z,0
2017-01-15T04:15:49.170Z,0
2017-01-15T04:16:49.157Z,0
2017-01-15T04:17:49.145Z,0
2017-01-15T04:18:49.138Z,0
2017-01-15T04:19:49.113Z,0
2017-01-15T04:20:49.101Z,0
2017-01-15T04:21:49.087Z,0
2017-01-15T04:22:49.073Z,0
2017-01-15T04:23:49.061Z,0
2017-01-15T04:24:49.073Z,0
2017-01-15T04:25:49.033Z,0
2017-01-15T04:26:49.021Z,0
2017-01-15T04:27:49.003Z,0
2017-01-15T04:28:48.995Z,0
2017-01-15T04:29:48.977Z,0
2017-01-15T04:30:48.967Z,0
2017-01-15T04:31:48.949Z,0
2017-01-15T04:32:48.965Z,0
2017-01-15T04:33:48.922Z,0
2017-01-15T04:34:48.910Z,0
2017-01-15T04:35:48.897Z,0
2017-01-15T04:36:48.885Z,0
2017-01-15T04:37:48.868Z,0
2017-01-15T04:38:48.853Z,0
2017-01-15T04:39:48.839Z,0
2017-01-15T04:40:49.213Z,0
2017-01-15T04:41:48.809Z,0
2017-01-15T04:42:48.835Z,0
2017-01-15T04:43:48.784Z,0
2017-01-15T04:44:48.775Z,0
2017-01-15T04:45:49.149Z,0
2017-01-15T04:46:48.745Z,0
2017-01-15T04:47:48.730Z,0
2017-01-15T04:48:48.713Z,0
2017-01-15T04:49:48.705Z,0
2017-01-15T04:50:48.717Z,0
2017-01-15T04:51:48.675Z,0
2017-01-15T04:52:48.660Z,0
2017-01-15T04:53:48.643Z,0
2017-01-15T04:54:48.633Z,0
2017-01-15T04:55:48.622Z,0
2017-01-15T04:56:48.604Z,0
2017-01-15T04:57:48.982Z,0
2017-01-15T04:58:48.574Z,0
2017-01-15T04:59:48.563Z,0
2017-01-15T05:00:48.559Z,0
2017-01-15T05:01:48.540Z,0
2017-01-15T05:02:48.530Z,0
2017-01-15T05:03:48.507Z,0
2017-01-15T05:04:48.488Z,0
2017-01-15T05:05:48.489Z,0
2017-01-15T05:06:48.502Z,0
2017-01-15T05:07:48.455Z,0
2017-01-15T05:08:48.452Z,0
2017-01-15T05:09:48.427Z,0
2017-01-15T05:10:48.410Z,0
2017-01-15T05:11:48.397Z,0
2017-01-15T05:12:48.388Z,0
2017-01-15T05:13:48.372Z,0
2017-01-15T05:14:48.354Z,0
2017-01-15T05:15:48.343Z,0
2017-01-15T05:16:48.329Z,0
2017-01-15T05:17:48.312Z,0
2017-01-15T05:18:48.299Z,0
2017-01-15T05:19:48.283Z,0
2017-01-15T05:20:48.271Z,0
2017-01-15T05:21:48.254Z,0
2017-01-15T05:22:48.270Z,0
2017-01-15T05:23:48.227Z,0
2017-01-15T05:24:48.223Z,0
2017-01-15T05:25:48.202Z,0
2017-01-15T05:26:48.186Z,0
2017-01-15T05:27:48.169Z,0
2017-01-15T05:28:48.167Z,0
2017-01-15T05:29:48.145Z,0
2017-01-15T05:30:48.130Z,0
2017-01-15T05:31:48.113Z,0
2017-01-15T05:32:48.100Z,0
2017-01-15T05:33:48.085Z,0
2017-01-15T05:34:48.073Z,0
2017-01-15T05:35:48.058Z,0
2017-01-15T05:36:48.045Z,0
2017-01-15T05:37:48.034Z,0
2017-01-15T05:38:48.017Z,0
2017-01-15T05:39:48.003Z,0
2017-01-15T05:40:47.996Z,0
2017-01-15T05:41:48.004Z,0
2017-01-15T05:42:47.965Z,0
2017-01-15T05:43:47.950Z,0
2017-01-15T05:44:47.933Z,0
2017-01-15T05:45:47.926Z,0
2017-01-15T05:46:47.907Z,0
2017-01-15T05:47:47.892Z,0
2017-01-15T05:48:47.875Z,0
2017-01-15T05:49:48.251Z,0
2017-01-15T05:50:47.847Z,0
2017-01-15T05:51:47.833Z,0
2017-01-15T05:52:47.821Z,0
2017-01-15T05:53:47.809Z,0
2017-01-15T05:54:47.792Z,0
2017-01-15T05:55:47.776Z,0
2017-01-15T05:56:47.765Z,0
2017-01-15T05:57:47.747Z,0
2017-01-15T05:58:47.736Z,0
2017-01-15T05:59:47.722Z,0
2017-01-15T06:00:47.710Z,0
2017-01-15T06:01:47.694Z,0
2017-01-15T06:02:47.677Z,0
2017-01-15T06:03:47.665Z,0
2017-01-15T06:04:47.660Z,0
2017-01-15T06:05:47.638Z,0
2017-01-15T06:06:47.623Z,0
2017-01-15T06:07:47.608Z,0
2017-01-15T06:08:47.600Z,0
2017-01-15T06:09:47.584Z,0
2017-01-15T06:10:47.571Z,0
2017-01-15T06:11:47.554Z,0
2017-01-15T06:12:47.541Z,0
2017-01-15T06:13:47.526Z,0
2017-01-15T06:14:47.512Z,0
2017-01-15T06:15:47.502Z,0
2017-01-15T06:16:47.480Z,0
2017-01-15T06:17:47.473Z,0
2017-01-15T06:18:47.455Z,0
2017-01-15T06:19:47.438Z,0
2017-01-15T06:20:47.426Z,0
2017-01-15T06:21:47.410Z,0
2017-01-15T06:22:47.397Z,0
2017-01-15T06:23:47.387Z,0
2017-01-15T06:24:47.372Z,0
2017-01-15T06:25:47.356Z,0
2017-01-15T06:26:47.345Z,0
2017-01-15T06:27:47.331Z,0
2017-01-15T06:28:47.313Z,0
2017-01-15T06:29:47.302Z,0
2017-01-15T06:30:47.291Z,0
2017-01-15T06:31:47.278Z,0
2017-01-15T06:32:47.260Z,0
2017-01-15T06:33:47.246Z,0
2017-01-15T06:34:47.234Z,0
2017-01-15T06:35:47.216Z,0
2017-01-15T06:36:47.203Z,0
2017-01-15T06:37:47.189Z,0
2017-01-15T06:38:47.172Z,0
2017-01-15T06:39:47.161Z,0
2017-01-15T06:40:47.146Z,0
2017-01-15T06:41:47.133Z,0
2017-01-15T06:42:47.126Z,0
2017-01-15T06:43:47.104Z,0
2017-01-15T06:44:47.091Z,0
2017-01-15T06:45:47.084Z,0
2017-01-15T06:46:47.062Z,0
2017-01-15T06:47:47.058Z,0
2017-01-15T06:48:47.041Z,0
2017-01-15T06:49:47.024Z,0
2017-01-15T06:50:47.009Z,0
2017-01-15T06:51:46.996Z,0
2017-01-15T06:52:46.977Z,0
2017-01-15T06:53:46.970Z,0
2017-01-15T06:54:46.949Z,0
2017-01-15T06:55:46.940Z,0
2017-01-15T06:56:46.929Z,0
2017-01-15T06:57:46.915Z,0
2017-01-15T06:58:46.896Z,0
2017-01-15T06:59:46.884Z,0
2017-01-15T07:00:46.868Z,0
2017-01-15T07:01:46.860Z,0
2017-01-15T07:02:46.844Z,0
2017-01-15T07:03:46.832Z,0
2017-01-15T07:04:46.835Z,0
2017-01-15T07:05:46.799Z,0
2017-01-15T07:06:46.788Z,0
2017-01-15T07:07:46.771Z,0
2017-01-15T07:08:46.780Z,0
2017-01-15T07:09:46.748Z,0
2017-01-15T07:10:46.732Z,0
2017-01-15T07:11:46.717Z,0
2017-01-15T07:12:46.703Z,5
2017-01-15T07:13:46.692Z,5
2017-01-15T07:14:46.678Z,5
2017-01-15T07:15:46.665Z,5
2017-01-15T07:16:46.654Z,5
2017-01-15T07:17:46.639Z,5
2017-01-15T07:18:46.622Z,5
2017-01-15T07:19:46.611Z,5
2017-01-15T07:20:46.593Z,5
2017-01-15T07:21:46.583Z,5
2017-01-15T07:22:46.571Z,10
2017-01-15T07:23:46.552Z,10
2017-01-15T07:24:46.543Z,10
2017-01-15T07:25:46.526Z,10
2017-01-15T07:26:46.519Z,10
2017-01-15T07:27:46.496Z,10
2017-01-15T07:28:46.486Z,10
2017-01-15T07:29:46.475Z,15
2017-01-15T07:30:46.460Z,15
2017-01-15T07:31:46.445Z,15
2017-01-15T07:32:46.433Z,20
2017-01-15T07:33:46.413Z,20
2017-01-15T07:34:46.419Z,20
2017-01-15T07:35:46.393Z,25
2017-01-15T07:36:46.378Z,25
2017-01-15T07:37:46.364Z,25
2017-01-15T07:38:46.351Z,25
2017-01-15T07:39:46.338Z,30
2017-01-15T07:40:46.325Z,30
2017-01-15T07:41:46.306Z,30
2017-01-15T07:42:46.295Z,30
2017-01-15T07:43:46.284Z,30
2017-01-15T07:44:46.264Z,30
2017-01-15T07:45:46.640Z,30
2017-01-15T07:46:46.237Z,30
2017-01-15T07:47:46.224Z,30
2017-01-15T07:48:46.210Z,30
2017-01-15T07:49:46.195Z,35
2017-01-15T07:50:46.185Z,35
2017-01-15T07:51:46.168Z,35
2017-01-15T07:52:46.158Z,30
2017-01-15T07:53:46.143Z,30
2017-01-15T07:54:46.129Z,30
2017-01-15T07:55:46.144Z,30
2017-01-15T07:56:46.103Z,30
2017-01-15T07:57:46.088Z,30
2017-01-15T07:58:46.071Z,30
2017-01-15T07:59:46.064Z,35
2017-01-15T08:00:46.046Z,40
2017-01-15T08:01:46.035Z,40
2017-01-15T08:02:46.028Z,40
2017-01-15T08:03:46.006Z,45
2017-01-15T08:04:46.004Z,50
2017-01-15T08:05:45.998Z,50
2017-01-15T08:06:45.968Z,45
2017-01-15T08:07:45.953Z,50
2017-01-15T08:08:45.940Z,45
2017-01-15T08:09:45.922Z,40
2017-01-15T08:10:45.912Z,35
2017-01-15T08:11:45.900Z,35
2017-01-15T08:12:45.899Z,35
2017-01-15T08:13:45.901Z,35
2017-01-15T08:14:45.861Z,30
2017-01-15T08:15:45.839Z,30
2017-01-15T08:16:45.829Z,35
2017-01-15T08:17:45.815Z,35
2017-01-15T08:18:45.799Z,40
2017-01-15T08:19:45.790Z,40
2017-01-15T08:20:45.785Z,40
2017-01-15T08:21:45.761Z,40
2017-01-15T08:22:45.746Z,40
2017-01-15T08:23:45.742Z,40
2017-01-15T08:24:45.721Z,40
2017-01-15T08:25:45.718Z,40
2017-01-15T08:26:45.699Z,45
2017-01-15T08:27:45.679Z,45
2017-01-15T08:28:45.668Z,45
2017-01-15T08:29:45.655Z,55
2017-01-15T08:30:45.640Z,55
2017-01-15T08:31:45.624Z,55
2017-01-15T08:32:45.612Z,60
2017-01-15T08:33:45.599Z,60
2017-01-15T08:34:45.585Z,65
2017-01-15T08:35:45.566Z,75
2017-01-15T08:36:45.562Z,80
2017-01-15T08:37:45.553Z,75
2017-01-15T08:38:45.826Z,70
2017-01-15T08:39:45.519Z,70
2017-01-15T08:40:45.518Z,75
2017-01-15T08:41:45.490Z,65
2017-01-15T08:42:45.482Z,65
2017-01-15T08:43:45.491Z,70
2017-01-15T08:44:45.450Z,75
2017-01-15T08:45:45.438Z,70
2017-01-15T08:46:45.428Z,70
2017-01-15T08:47:45.411Z,70
2017-01-15T08:48:45.399Z,70
2017-01-15T08:49:45.383Z,75
2017-01-15T08:50:45.369Z,75
2017-01-15T08:51:45.362Z,80
2017-01-15T08:52:45.343Z,85
2017-01-15T08:53:45.328Z,100
2017-01-15T08:54:45.316Z,105
2017-01-15T08:55:45.302Z,95
2017-01-15T08:56:45.290Z,90
2017-01-15T08:57:45.284Z,95
2017-01-15T08:58:45.261Z,100
2017-01-15T08:59:45.255Z,105
2017-01-15T09:00:45.234Z,115
2017-01-15T09:01:45.224Z,115
2017-01-15T09:02:45.210Z,105
2017-01-15T09:03:45.200Z,100
2017-01-15T09:04:45.187Z,95
2017-01-15T09:05:45.170Z,85
2017-01-15T09:06:45.159Z,90
2017-01-15T09:07:45.145Z,100
2017-01-15T09:08:45.136Z,100
2017-01-15T09:09:45.119Z,95
2017-01-15T09:10:45.503Z,100
2017-01-15T09:11:45.088Z,95
2017-01-15T09:12:45.466Z,105
2017-01-15T09:13:45.070Z,110
2017-01-15T09:14:45.053Z,115
2017-01-15T09:15:45.039Z,110
2017-01-15T09:16:45.031Z,105
2017-01-15T09:17:45.016Z,100
2017-01-15T09:18:44.999Z,105
2017-01-15T09:19:44.985Z,105
2017-01-15T09:20:44.974Z,110
2017-01-15T09:21:44.963Z,125
2017-01-15T09:22:44.948Z,125
2017-01-15T09:23:44.938Z,125
2017-01-15T09:24:44.923Z,115
2017-01-15T09:25:44.913Z,105
2017-01-15T09:26:44.902Z,110
2017-01-15T09:27:44.885Z,110
2017-01-15T09:28:44.878Z,100
2017-01-15T09:29:44.859Z,105
2017-01-15T09:30:44.842Z,95
2017-01-15T09:31:44.830Z,100
2017-01-15T09:32:45.208Z,90
2017-01-15T09:33:44.808Z,95
2017-01-15T09:34:45.187Z,95
2017-01-15T09:35:44.780Z,100
2017-01-15T09:36:44.767Z,90
2017-01-15T09:37:44.755Z,95
2017-01-15T09:38:44.743Z,95
2017-01-15T09:39:44.730Z,115
2017-01-15T09:40:44.717Z,110
2017-01-15T09:41:44.703Z,115
2017-01-15T09:42:44.693Z,125
2017-01-15T09:43:44.680Z,130
2017-01-15T09:44:44.667Z,150
2017-01-15T09:45:44.654Z,165
2017-01-15T09:46:44.646Z,165
2017-01-15T09:47:44.633Z,170
2017-01-15T09:48:44.612Z,165
2017-01-15T09:49:44.603Z,180
2017-01-15T09:50:44.590Z,175
2017-01-15T09:51:44.574Z,175
2017-01-15T09:52:44.564Z,170
2017-01-15T09:53:44.553Z,165
2017-01-15T09:54:44.537Z,155
2017-01-15T09:55:44.910Z,135
2017-01-15T09:56:44.517Z,130
2017-01-15T09:57:44.500Z,130
2017-01-15T09:58:44.494Z,140
2017-01-15T09:59:44.861Z,145
2017-01-15T10:00:44.491Z,165
2017-01-15T10:01:44.451Z,155
2017-01-15T10:02:44.439Z,165
2017-01-15T10:03:44.425Z,175
2017-01-15T10:04:44.420Z,175
2017-01-15T10:05:44.419Z,160
2017-01-15T10:06:44.387Z,155
2017-01-15T10:07:44.377Z,155
2017-01-15T10:08:44.363Z,150
2017-01-15T10:09:44.351Z,145
2017-01-15T10:10:44.339Z,140
2017-01-15T10:11:44.333Z,145
2017-01-15T10:12:44.318Z,145
2017-01-15T10:13:44.303Z,150
2017-01-15T10:14:44.291Z,145
2017-01-15T10:15:44.283Z,145
2017-01-15T10:16:44.267Z,155
2017-01-15T10:17:44.641Z,175
2017-01-15T10:18:44.627Z,185
2017-01-15T10:19:44.232Z,180
2017-01-15T10:20:44.219Z,210
2017-01-15T10:21:44.202Z,210
2017-01-15T10:22:44.189Z,200
2017-01-15T10:23:44.184Z,195
2017-01-15T10:24:44.168Z,205
2017-01-15T10:25:44.155Z,205
2017-01-15T10:26:44.141Z,205
2017-01-15T10:27:44.134Z,185
2017-01-15T10:28:44.120Z,195
2017-01-15T10:29:44.106Z,195
2017-01-15T10:30:44.094Z,190
2017-01-15T10:31:44.084Z,185
2017-01-15T10:32:44.069Z,180
2017-01-15T10:33:44.058Z,180
2017-01-15T10:34:44.046Z,175
2017-01-15T10:35:44.034Z,180
2017-01-15T10:36:44.019Z,200
2017-01-15T10:37:44.009Z,205
2017-01-15T10:38:43.997Z,215
2017-01-15T10:39:44.373Z,235
2017-01-15T10:40:43.975Z,235
2017-01-15T10:41:43.973Z,210
2017-01-15T10:42:43.967Z,205
2017-01-15T10:43:44.324Z,195
2017-01-15T10:44:43.926Z,190
2017-01-15T10:45:43.914Z,175
2017-01-15T10:46:43.904Z,175
2017-01-15T10:47:43.889Z,160
2017-01-15T10:48:43.879Z,170
2017-01-15T10:49:43.902Z,160
2017-01-15T10:50:43.853Z,150
2017-01-15T10:51:44.234Z,145
2017-01-15T10:52:43.837Z,135
2017-01-15T10:53:43.819Z,145
2017-01-15T10:54:43.810Z,150
2017-01-15T10:55:43.801Z,150
2017-01-15T10:56:43.788Z,155
2017-01-15T10:57:43.781Z,155
2017-01-15T10:58:43.759Z,160
2017-01-15T10:59:43.774Z,165
2017-01-15T11:00:43.765Z,185
2017-01-15T11:01:43.733Z,170
2017-01-15T11:02:43.716Z,160
2017-01-15T11:03:43.704Z,170
2017-01-15T11:04:43.693Z,170
2017-01-15T11:05:43.676Z,155
2017-01-15T11:06:43.664Z,150
2017-01-15T11:07:43.659Z,145
2017-01-15T11:08:43.639Z,145
2017-01-15T11:09:43.632Z,150
2017-01-15T11:10:43.644Z,140
2017-01-15T11:11:43.603Z,125
2017-01-15T11:12:43.592Z,115
2017-01-15T11:13:43.578Z,100
2017-01-15T11:14:43.954Z,100
2017-01-15T11:15:43.557Z,95
2017-01-15T11:16:43.933Z,100
2017-01-15T11:17:43.532Z,110
2017-01-15T11:18:43.523Z,110
2017-01-15T11:19:43.507Z,110
2017-01-15T11:20:43.496Z,115
2017-01-15T11:21:43.487Z,110
2017-01-15T11:22:43.475Z,115
2017-01-15T11:23:43.462Z,115
2017-01-15T11:24:43.446Z,115
2017-01-15T11:25:43.463Z,115
2017-01-15T11:26:43.447Z,110
2017-01-15T11:27:43.415Z,105
2017-01-15T11:28:43.783Z,105
2017-01-15T11:29:43.391Z,100
2017-01-15T11:30:43.379Z,105
2017-01-15T11:31:43.365Z,100
2017-01-15T11:32:43.347Z,100
2017-01-15T11:33:43.339Z,110
2017-01-15T11:34:43.324Z,115
2017-01-15T11:35:43.314Z,110
2017-01-15T11:36:43.300Z,105
2017-01-15T11:37:43.288Z,105
2017-01-15T11:38:43.277Z,105
2017-01-15T11:39:43.260Z,105
2017-01-15T11:40:43.253Z,105
2017-01-15T11:41:43.239Z,110
2017-01-15T11:42:43.229Z,105
2017-01-15T11:43:43.214Z,100
2017-01-15T11:44:43.200Z,100
2017-01-15T11:45:43.186Z,115
2017-01-15T11:46:43.173Z,115
2017-01-15T11:47:43.544Z,120
2017-01-15T11:48:43.174Z,120
2017-01-15T11:49:43.134Z,120
2017-01-15T11:50:43.511Z,120
2017-01-15T11:51:43.104Z,120
2017-01-15T11:52:43.096Z,110
2017-01-15T11:53:43.082Z,110
2017-01-15T11:54:43.076Z,115
2017-01-15T11:55:43.059Z,120
2017-01-15T11:56:43.045Z,110
2017-01-15T11:57:43.031Z,110
2017-01-15T11:58:43.029Z,110
2017-01-15T11:59:43.012Z,110
2017-01-15T12:00:42.999Z,110
2017-01-15T12:01:42.980Z,110
2017-01-15T12:02:42.968Z,110
2017-01-15T12:03:42.961Z,120
2017-01-15T12:04:42.946Z,115
2017-01-15T12:05:42.941Z,115
2017-01-15T12:06:42.922Z,110
2017-01-15T12:07:42.909Z,120
2017-01-15T12:08:42.893Z,125
2017-01-15T12:09:42.883Z,130
2017-01-15T12:10:42.871Z,130
2017-01-15T12:11:42.859Z,135
2017-01-15T12:12:42.842Z,125
2017-01-15T12:13:42.836Z,125
2017-01-15T12:14:42.823Z,125
2017-01-15T12:15:42.807Z,125
2017-01-15T12:16:42.827Z,130
2017-01-15T12:17:42.792Z,125
2017-01-15T12:18:42.768Z,125
2017-01-15T12:19:42.759Z,125
2017-01-15T12:20:42.748Z,115
2017-01-15T12:21:42.737Z,125
2017-01-15T12:22:42.717Z,115
2017-01-15T12:23:42.712Z,115
2017-01-15T12:24:42.692Z,100
2017-01-15T12:25:42.679Z,105
2017-01-15T12:26:42.675Z,100
2017-01-15T12:27:42.661Z,110
2017-01-15T12:28:42.652Z,105
2017-01-15T12:29:42.631Z,110
2017-01-15T12:30:42.641Z,105
2017-01-15T12:31:42.611Z,105
2017-01-15T12:32:42.594Z,110
2017-01-15T12:33:42.585Z,115
2017-01-15T12:34:42.574Z,120
2017-01-15T12:35:42.560Z,120
2017-01-15T12:36:42.554Z,120
2017-01-15T12:37:42.535Z,125
2017-01-15T12:38:42.527Z,130
2017-01-15T12:39:42.509Z,130
2017-01-15T12:40:42.495Z,125
2017-01-15T12:41:42.486Z,115
2017-01-15T12:42:42.477Z,110
2017-01-15T12:43:42.462Z,105
2017-01-15T12:44:42.448Z,100
2017-01-15T12:45:42.449Z,100
2017-01-15T12:46:42.422Z,110
2017-01-15T12:47:42.406Z,105
2017-01-15T12:48:42.394Z,110
2017-01-15T12:49:42.385Z,120
2017-01-15T12:50:42.373Z,120
2017-01-15T12:51:42.360Z,110
2017-01-15T12:52:42.347Z,110
2017-01-15T12:53:42.374Z,120
2017-01-15T12:54:42.709Z,120
2017-01-15T12:55:42.305Z,115
2017-01-15T12:56:42.322Z,105
2017-01-15T12:57:42.284Z,105
2017-01-15T12:58:42.295Z,105
2017-01-15T12:59:42.256Z,95
2017-01-15T13:00:42.255Z,90
2017-01-15T13:01:42.238Z,90
2017-01-15T13:02:42.220Z,75
2017-01-15T13:03:42.215Z,70
2017-01-15T13:04:42.196Z,60
2017-01-15T13:05:42.187Z,75
2017-01-15T13:06:42.176Z,85
2017-01-15T13:07:42.161Z,80
2017-01-15T13:08:42.149Z,75
2017-01-15T13:09:42.135Z,75
2017-01-15T13:10:42.123Z,75
2017-01-15T13:11:42.114Z,75
2017-01-15T13:12:42.094Z,75
2017-01-15T13:13:42.085Z,75
2017-01-15T13:14:42.848Z,75
2017-01-15T13:15:42.061Z,75
2017-01-15T13:16:42.052Z,75
2017-01-15T13:17:42.035Z,65
2017-01-15T13:18:42.024Z,70
2017-01-15T13:19:42.010Z,70
2017-01-15T13:20:41.999Z,70
2017-01-15T13:21:41.986Z,75
2017-01-15T13:22:41.972Z,70
2017-01-15T13:23:41.965Z,70
2017-01-15T13:24:41.951Z,70
2017-01-15T13:25:41.935Z,70
2017-01-15T13:26:41.922Z,65
2017-01-15T13:27:42.296Z,65
2017-01-15T13:28:41.902Z,65
2017-01-15T13:29:42.286Z,65
2017-01-15T13:30:41.871Z,70
2017-01-15T13:31:41.862Z,90
2017-01-15T13:32:41.844Z,100
2017-01-15T13:33:41.833Z,100
2017-01-15T13:34:41.820Z,100
2017-01-15T13:35:41.808Z,100
2017-01-15T13:36:42.572Z,95
2017-01-15T13:37:41.787Z,85
2017-01-15T13:38:41.768Z,80
2017-01-15T13:39:41.758Z,80
2017-01-15T13:40:41.748Z,80
2017-01-15T13:41:42.122Z,70
2017-01-15T13:42:41.722Z,80
2017-01-15T13:43:41.710Z,80
2017-01-15T13:44:41.695Z,85
2017-01-15T13:45:41.686Z,90
2017-01-15T13:46:41.668Z,95
2017-01-15T13:47:42.048Z,100
2017-01-15T13:48:41.644Z,105
2017-01-15T13:49:41.634Z,105
2017-01-15T13:50:41.624Z,105
2017-01-15T13:51:41.607Z,115
2017-01-15T13:52:41.600Z,110
2017-01-15T13:53:41.586Z,110
2017-01-15T13:54:41.955Z,100
2017-01-15T13:55:41.557Z,100
2017-01-15T13:56:41.543Z,100
2017-01-15T13:57:41.529Z,100
2017-01-15T13:58:41.522Z,100
2017-01-15T13:59:41.504Z,95
2017-01-15T14:00:41.495Z,100
2017-01-15T14:01:41.482Z,100
2017-01-15T14:02:41.471Z,100
2017-01-15T14:03:41.455Z,95
2017-01-15T14:04:41.446Z,90
2017-01-15T14:05:41.428Z,95
2017-01-15T14:06:41.419Z,90
2017-01-15T14:07:41.408Z,85
2017-01-15T14:08:41.395Z,90
2017-01-15T14:09:41.378Z,85
2017-01-15T14:10:41.374Z,90
2017-01-15T14:11:41.356Z,95
2017-01-15T14:12:41.341Z,85
2017-01-15T14:13:41.330Z,85
2017-01-15T14:14:41.324Z,75
2017-01-15T14:15:41.304Z,75
2017-01-15T14:16:41.292Z,75
2017-01-15T14:17:41.276Z,75
2017-01-15T14:18:41.266Z,70
2017-01-15T14:19:41.262Z,65
2017-01-15T14:20:41.240Z,65
2017-01-15T14:21:41.232Z,65
2017-01-15T14:22:41.218Z,65